createdAt,value
2022-08-16T00:02:23.109Z,58.30
2022-08-16T00:04:51.127Z,58.40
2022-08-16T00:07:18.055Z,58.40
2022-08-16T00:09:45.444Z,58.30
2022-08-16T00:12:12.450Z,58.30
2022-08-16T00:14:44.886Z,58.30
2022-08-16T00:17:18.822Z,58.20
2022-08-16T00:19:46.626Z,58.90
2022-08-16T00:22:20.820Z,58.20
2022-08-16T00:24:51.595Z,58.20
2022-08-16T00:27:18.416Z,58.20
2022-08-16T00:29:45.759Z,58.20
2022-08-16T00:32:12.703Z,58.20
2022-08-16T00:34:53.240Z,58.30
2022-08-16T00:37:24.538Z,58.10
2022-08-16T00:39:58.227Z,58.30
2022-08-16T00:42:31.849Z,58.30
2022-08-16T00:45:18.750Z,58.40
2022-08-16T00:47:51.806Z,58.40
2022-08-16T00:50:35.909Z,58.40
2022-08-16T00:53:05.245Z,58.40
2022-08-16T00:55:38.029Z,59.10
2022-08-16T00:58:05.163Z,58.50
2022-08-16T01:00:40.124Z,58.50
2022-08-16T01:03:11.742Z,58.60
2022-08-16T01:05:39.774Z,58.60
2022-08-16T01:08:35.292Z,58.60
2022-08-16T01:10:53.814Z,58.70
2022-08-16T01:13:22.890Z,58.80
2022-08-16T01:16:22.387Z,58.80
2022-08-16T01:19:43.375Z,58.70
2022-08-16T01:22:46.928Z,58.80
2022-08-16T01:25:14.815Z,58.90
2022-08-16T01:27:52.651Z,58.90
2022-08-16T01:30:26.142Z,59.00
2022-08-16T01:33:01.816Z,59.00
2022-08-16T01:36:02.243Z,59.00
2022-08-16T01:38:53.146Z,59.00
2022-08-16T01:41:26.396Z,59.10
2022-08-16T01:43:56.557Z,59.10
2022-08-16T01:46:39.286Z,59.00
2022-08-16T01:49:22.181Z,59.20
2022-08-16T01:52:01.439Z,59.20
2022-08-16T01:54:30.999Z,59.30
2022-08-16T01:56:58.350Z,59.20
2022-08-16T01:59:25.074Z,59.20
2022-08-16T02:01:59.447Z,59.30
2022-08-16T02:04:48.636Z,59.30
2022-08-16T02:07:14.050Z,59.30
2022-08-16T02:09:40.794Z,59.40
2022-08-16T02:12:51.586Z,59.50
2022-08-16T02:14:55.514Z,59.40
2022-08-16T02:17:22.250Z,59.70
2022-08-16T02:19:59.645Z,59.70
2022-08-16T02:22:34.798Z,59.70
2022-08-16T02:25:09.791Z,59.80
2022-08-16T02:27:38.178Z,59.90
2022-08-16T02:30:06.573Z,60.00
2022-08-16T02:32:49.979Z,60.00
2022-08-16T02:35:18.450Z,60.10
2022-08-16T02:37:53.036Z,60.20
2022-08-16T02:40:21.656Z,60.30
2022-08-16T02:42:50.021Z,60.40
2022-08-16T02:45:18.122Z,60.50
2022-08-16T02:48:01.075Z,60.70
2022-08-16T02:50:54.663Z,60.70
2022-08-16T02:53:23.561Z,60.90
2022-08-16T02:55:50.887Z,60.90
2022-08-16T02:58:18.489Z,61.00
2022-08-16T03:00:50.250Z,61.10
2022-08-16T03:03:17.919Z,61.20
2022-08-16T03:05:45.193Z,61.30
2022-08-16T03:08:50.242Z,61.40
2022-08-16T03:11:06.489Z,61.50
2022-08-16T03:13:48.048Z,61.60
2022-08-16T03:16:18.070Z,61.70
2022-08-16T03:19:05.142Z,61.80
2022-08-16T03:21:37.715Z,61.90
2022-08-16T03:24:29.280Z,61.90
2022-08-16T03:26:53.480Z,61.90
2022-08-16T03:29:29.961Z,61.90
2022-08-16T03:31:59.144Z,61.90
2022-08-16T03:34:28.668Z,62.10
2022-08-16T03:36:55.507Z,62.20
2022-08-16T03:39:22.496Z,62.20
2022-08-16T03:41:50.091Z,62.30
2022-08-16T03:44:44.783Z,62.40
2022-08-16T03:47:04.606Z,62.50
2022-08-16T03:49:37.394Z,62.50
2022-08-16T03:52:04.477Z,62.60
2022-08-16T03:54:31.212Z,62.70
2022-08-16T03:56:58.856Z,62.70
2022-08-16T03:59:25.819Z,62.70
2022-08-16T04:01:57.523Z,62.80
2022-08-16T04:04:32.605Z,62.90
2022-08-16T04:07:01.031Z,63.00
2022-08-16T04:09:35.585Z,63.10
2022-08-16T04:12:10.587Z,63.10
2022-08-16T04:14:38.347Z,63.20
2022-08-16T04:17:13.641Z,63.30
2022-08-16T04:19:45.671Z,63.40
2022-08-16T04:22:13.898Z,63.60
2022-08-16T04:24:54.916Z,64.40
2022-08-16T04:27:22.425Z,63.60
2022-08-16T04:29:52.163Z,63.70
2022-08-16T04:32:19.751Z,63.80
2022-08-16T04:34:47.087Z,63.80
2022-08-16T04:37:14.163Z,63.90
2022-08-16T04:39:46.610Z,63.90
2022-08-16T04:42:15.749Z,64.10
2022-08-16T04:44:53.736Z,64.10
2022-08-16T04:47:31.382Z,64.20
2022-08-16T04:50:00.692Z,64.20
2022-08-16T04:52:34.438Z,64.20
2022-08-16T04:55:15.367Z,64.20
2022-08-16T04:57:42.644Z,64.30
2022-08-16T05:00:31.135Z,64.20
2022-08-16T05:03:01.198Z,64.40
2022-08-16T05:05:33.042Z,64.40
2022-08-16T05:08:29.743Z,64.50
2022-08-16T05:11:03.552Z,64.60
2022-08-16T05:13:40.977Z,64.70
2022-08-16T05:16:12.018Z,64.70
2022-08-16T05:18:47.670Z,64.70
2022-08-16T05:21:14.457Z,64.70
2022-08-16T05:23:41.257Z,64.90
2022-08-16T05:26:19.846Z,64.90
2022-08-16T05:28:55.159Z,64.90
2022-08-16T05:31:29.680Z,64.90
2022-08-16T05:34:00.613Z,65.10
2022-08-16T05:36:33.951Z,65.10
2022-08-16T05:39:03.037Z,65.10
2022-08-16T05:41:30.684Z,65.20
2022-08-16T05:43:59.140Z,65.20
2022-08-16T05:46:29.839Z,65.10
2022-08-16T05:49:08.630Z,65.20
2022-08-16T05:51:42.820Z,65.20
2022-08-16T05:54:14.297Z,65.20
2022-08-16T05:56:41.827Z,65.20
2022-08-16T05:59:09.915Z,65.20
2022-08-16T06:01:38.929Z,65.20
2022-08-16T06:04:13.388Z,65.20
2022-08-16T06:06:56.453Z,65.20
2022-08-16T06:09:24.396Z,65.20
2022-08-16T06:11:51.930Z,65.20
2022-08-16T06:14:18.767Z,65.30
2022-08-16T06:16:50.857Z,65.40
2022-08-16T06:19:18.232Z,65.40
2022-08-16T06:21:45.811Z,65.40
2022-08-16T06:24:54.633Z,65.50
2022-08-16T06:27:08.865Z,65.60
2022-08-16T06:29:35.583Z,65.50
2022-08-16T06:32:02.405Z,65.60
2022-08-16T06:34:57.291Z,65.60
2022-08-16T06:37:18.897Z,65.60
2022-08-16T06:39:49.832Z,65.60
2022-08-16T06:42:18.258Z,65.60
2022-08-16T06:44:45.823Z,65.50
2022-08-16T06:47:13.032Z,65.50
2022-08-16T06:49:52.837Z,65.60
2022-08-16T06:52:57.633Z,65.50
2022-08-16T06:55:13.025Z,65.60
2022-08-16T06:57:40.539Z,65.60
2022-08-16T07:00:10.044Z,65.50
2022-08-16T07:02:51.718Z,65.50
2022-08-16T07:05:18.937Z,65.40
2022-08-16T07:07:47.247Z,65.30
2022-08-16T07:10:18.102Z,65.30
2022-08-16T07:12:47.465Z,65.20
2022-08-16T07:15:30.357Z,65.10
2022-08-16T07:17:57.185Z,65.00
2022-08-16T07:20:35.047Z,65.00
2022-08-16T07:23:13.564Z,65.00
2022-08-16T07:25:40.749Z,65.00
2022-08-16T07:28:11.832Z,64.80
2022-08-16T07:30:45.663Z,64.80
2022-08-16T07:33:15.849Z,64.80
2022-08-16T07:35:44.123Z,64.80
2022-08-16T07:38:11.376Z,64.70
2022-08-16T07:40:59.811Z,64.80
2022-08-16T07:43:29.310Z,64.80
2022-08-16T07:45:56.534Z,64.70
2022-08-16T07:48:24.111Z,64.50
2022-08-16T07:50:57.808Z,64.40
2022-08-16T07:53:30.403Z,64.30
2022-08-16T07:55:58.038Z,64.20
2022-08-16T07:58:34.198Z,64.20
2022-08-16T08:01:03.632Z,64.00
2022-08-16T08:03:35.961Z,64.00
2022-08-16T08:06:06.410Z,63.90
2022-08-16T08:08:50.876Z,64.00
2022-08-16T08:11:19.383Z,64.00
2022-08-16T08:13:48.960Z,64.00
2022-08-16T08:16:18.977Z,64.10
2022-08-16T08:18:50.164Z,64.00
2022-08-16T08:21:26.353Z,64.10
2022-08-16T08:23:54.530Z,64.00
2022-08-16T08:26:21.509Z,63.90
2022-08-16T08:28:51.141Z,63.90
2022-08-16T08:31:18.742Z,63.90
2022-08-16T08:33:47.520Z,63.90
2022-08-16T08:36:25.234Z,63.90
2022-08-16T08:39:00.205Z,64.00
2022-08-16T08:41:28.438Z,63.90
2022-08-16T08:43:56.243Z,64.20
2022-08-16T08:46:24.435Z,64.40
2022-08-16T08:48:59.259Z,64.60
2022-08-16T08:51:27.586Z,64.90
2022-08-16T08:53:58.842Z,65.00
2022-08-16T08:56:25.924Z,65.10
2022-08-16T08:58:54.233Z,65.20
2022-08-16T09:01:31.761Z,65.40
2022-08-16T09:04:05.176Z,65.60
2022-08-16T09:06:33.911Z,65.60
2022-08-16T09:09:01.637Z,65.70
2022-08-16T09:11:38.879Z,65.90
2022-08-16T09:14:08.134Z,66.00
2022-08-16T09:17:03.821Z,66.10
2022-08-16T09:19:41.009Z,66.20
2022-08-16T09:22:19.749Z,66.30
2022-08-16T09:24:53.571Z,66.60
2022-08-16T09:27:25.336Z,66.80
2022-08-16T09:30:00.102Z,67.00
2022-08-16T09:32:30.510Z,66.90
2022-08-16T09:34:58.782Z,67.10
2022-08-16T09:37:30.174Z,67.40
2022-08-16T09:40:04.700Z,67.60
2022-08-16T09:43:05.222Z,67.80
2022-08-16T09:45:33.217Z,68.00
2022-08-16T09:48:03.075Z,67.90
2022-08-16T09:50:37.225Z,68.00
2022-08-16T09:53:15.567Z,68.30
2022-08-16T09:55:45.338Z,68.50
2022-08-16T09:58:40.444Z,68.60
2022-08-16T10:01:03.415Z,68.80
2022-08-16T10:03:30.453Z,69.00
2022-08-16T10:05:57.597Z,69.00
2022-08-16T10:08:26.971Z,69.00
2022-08-16T10:10:54.379Z,69.30
2022-08-16T10:13:21.131Z,69.50
2022-08-16T10:15:55.453Z,69.50
2022-08-16T10:18:56.093Z,69.80
2022-08-16T10:21:09.392Z,70.10
2022-08-16T10:23:36.157Z,70.40
2022-08-16T10:27:17.462Z,70.50
2022-08-16T10:28:51.906Z,70.70
2022-08-16T10:31:45.324Z,70.80
2022-08-16T10:34:05.646Z,70.90
2022-08-16T10:36:54.442Z,71.10
2022-08-16T10:39:21.363Z,71.10
2022-08-16T10:41:48.089Z,71.10
2022-08-16T10:44:15.125Z,71.30
2022-08-16T10:46:44.653Z,71.30
2022-08-16T10:49:12.188Z,71.30
2022-08-16T10:52:02.556Z,71.40
2022-08-16T10:54:28.894Z,71.70
2022-08-16T10:56:57.578Z,71.90
2022-08-16T10:59:38.274Z,72.20
2022-08-16T11:02:59.737Z,72.30
2022-08-16T11:05:06.374Z,72.20
2022-08-16T11:07:52.552Z,72.20
2022-08-16T11:19:06.250Z,72.50
2022-08-16T11:22:39.247Z,72.50
2022-08-16T11:24:39.803Z,72.50
2022-08-16T11:27:35.469Z,72.70
2022-08-16T11:29:56.895Z,72.70
2022-08-16T11:32:31.773Z,72.70
2022-08-16T11:35:15.040Z,72.80
2022-08-16T11:40:44.221Z,72.90
2022-08-16T11:43:11.594Z,72.50
2022-08-16T11:45:38.295Z,72.00
2022-08-16T11:48:05.411Z,71.60
2022-08-16T11:50:32.719Z,71.30
2022-08-16T11:53:03.393Z,71.40
2022-08-16T11:55:30.688Z,71.50
2022-08-16T11:57:57.645Z,71.60
2022-08-16T12:00:50.683Z,71.80
2022-08-16T12:03:11.548Z,71.80
2022-08-16T12:05:38.647Z,71.00
2022-08-16T12:08:06.851Z,68.90
2022-08-16T12:10:34.117Z,66.20
2022-08-16T12:13:02.680Z,64.10
2022-08-16T12:15:30.905Z,63.10
2022-08-16T12:17:57.927Z,63.40
2022-08-16T12:20:34.549Z,64.10
2022-08-16T12:23:01.612Z,64.50
2022-08-16T12:25:29.616Z,65.30
2022-08-16T12:27:57.178Z,65.50
2022-08-16T12:30:32.479Z,65.60
2022-08-16T12:33:03.174Z,65.60
2022-08-16T12:35:30.484Z,65.70
2022-08-16T12:37:58.771Z,65.50
2022-08-16T12:40:31.396Z,65.50
2022-08-16T12:42:59.454Z,65.70
2022-08-16T12:45:30.989Z,65.70
2022-08-16T12:48:16.067Z,65.60
2022-08-16T12:50:49.452Z,65.60
2022-08-16T12:53:17.448Z,65.30
2022-08-16T12:55:44.168Z,65.10
2022-08-16T12:58:14.003Z,65.30
2022-08-16T13:00:58.812Z,65.30
2022-08-16T13:03:25.875Z,65.40
2022-08-16T13:05:55.833Z,65.20
2022-08-16T13:08:30.597Z,65.40
2022-08-16T13:10:57.674Z,65.50
2022-08-16T13:13:25.150Z,65.70
2022-08-16T13:15:58.289Z,65.90
2022-08-16T13:18:34.535Z,66.00
2022-08-16T13:21:06.438Z,66.10
2022-08-16T13:23:35.897Z,66.10
2022-08-16T13:26:03.631Z,66.20
2022-08-16T13:28:30.362Z,66.20
2022-08-16T13:30:57.252Z,66.10
2022-08-16T13:33:31.107Z,65.90
2022-08-16T13:35:59.133Z,65.70
2022-08-16T13:38:27.465Z,65.50
2022-08-16T13:40:58.070Z,65.40
2022-08-16T13:43:28.863Z,65.00
2022-08-16T13:45:59.534Z,64.40
2022-08-16T13:48:42.498Z,64.10
2022-08-16T13:51:16.669Z,63.90
2022-08-16T13:53:54.279Z,63.90
2022-08-16T13:56:25.237Z,63.60
2022-08-16T13:58:55.094Z,63.30
2022-08-16T14:01:22.409Z,62.80
2022-08-16T14:03:49.392Z,62.00
2022-08-16T14:06:18.831Z,61.00
2022-08-16T14:08:50.216Z,60.00
2022-08-16T14:11:26.413Z,59.60
2022-08-16T14:13:55.982Z,59.80
2022-08-16T14:16:23.846Z,60.00
2022-08-16T14:18:52.752Z,60.40
2022-08-16T14:21:21.954Z,60.80
2022-08-16T14:23:50.675Z,60.90
2022-08-16T14:26:20.335Z,61.10
2022-08-16T14:28:47.226Z,61.30
2022-08-16T14:31:14.234Z,61.90
2022-08-16T14:33:41.948Z,61.70
2022-08-16T14:36:09.219Z,61.50
2022-08-16T14:38:39.149Z,61.30
2022-08-16T14:41:10.206Z,61.40
2022-08-16T14:43:37.355Z,61.60
2022-08-16T14:46:04.133Z,61.80
2022-08-16T14:48:34.368Z,62.10
2022-08-16T14:51:01.619Z,62.20
2022-08-16T14:53:28.621Z,62.20
2022-08-16T14:55:58.145Z,62.50
2022-08-16T14:58:34.564Z,62.70
2022-08-16T15:01:04.700Z,62.80
2022-08-16T15:03:32.075Z,63.70
2022-08-16T15:06:00.637Z,63.00
2022-08-16T15:08:36.383Z,63.10
2022-08-16T15:11:05.482Z,63.40
2022-08-16T15:13:32.375Z,63.70
2022-08-16T15:16:02.783Z,64.10
2022-08-16T15:18:31.508Z,64.50
2022-08-16T15:21:02.185Z,64.70
2022-08-16T15:23:29.152Z,64.80
2022-08-16T15:26:02.915Z,65.00
2022-08-16T15:28:32.442Z,65.20
2022-08-16T15:31:03.614Z,65.30
2022-08-16T15:33:34.961Z,65.30
2022-08-16T15:36:02.064Z,65.30
2022-08-16T15:38:55.293Z,65.20
2022-08-16T15:41:43.035Z,65.40
2022-08-16T15:44:22.690Z,65.50
2022-08-16T15:46:55.262Z,65.50
2022-08-16T15:49:25.296Z,65.60
2022-08-16T15:52:29.645Z,65.70
2022-08-16T15:54:57.503Z,65.70
2022-08-16T15:57:25.025Z,65.70
2022-08-16T15:59:56.044Z,65.80
2022-08-16T16:02:29.488Z,65.90
2022-08-16T16:05:05.343Z,66.10
2022-08-16T16:07:33.173Z,65.90
2022-08-16T16:10:01.390Z,66.10
2022-08-16T16:15:19.047Z,66.10
2022-08-16T16:17:50.819Z,66.10
2022-08-16T16:20:18.387Z,66.10
2022-08-16T16:22:46.821Z,66.10
2022-08-16T16:25:14.245Z,66.20
2022-08-16T16:27:41.034Z,66.20
2022-08-16T16:30:33.212Z,66.20
2022-08-16T16:32:56.294Z,66.40
2022-08-16T16:35:25.421Z,66.20
2022-08-16T16:37:52.409Z,66.20
2022-08-16T16:40:32.143Z,66.30
2022-08-16T16:43:00.007Z,66.30
2022-08-16T16:45:33.339Z,66.20
2022-08-16T16:48:12.806Z,66.00
2022-08-16T16:50:40.835Z,66.10
2022-08-16T16:53:17.076Z,66.20
2022-08-16T16:55:51.553Z,66.20
2022-08-16T16:58:35.153Z,66.20
2022-08-16T17:01:02.431Z,66.10
2022-08-16T17:03:29.208Z,66.10
2022-08-16T17:05:58.679Z,66.00
2022-08-16T17:08:27.140Z,66.00
2022-08-16T17:10:55.492Z,66.00
2022-08-16T17:13:22.561Z,65.90
2022-08-16T17:15:52.140Z,66.00
2022-08-16T17:19:17.735Z,66.10
2022-08-16T17:21:07.288Z,66.30
2022-08-16T17:26:20.829Z,66.70
2022-08-16T17:28:58.224Z,66.90
2022-08-16T17:31:38.240Z,67.10
2022-08-16T17:34:29.451Z,67.20
2022-08-16T17:36:54.521Z,67.30
2022-08-16T17:39:21.499Z,67.30
2022-08-16T17:39:26.678Z,66.50
2022-08-16T17:41:50.607Z,67.20
2022-08-16T17:44:17.327Z,67.20
2022-08-16T17:46:52.416Z,67.10
2022-08-16T17:49:19.613Z,67.10
2022-08-16T17:51:46.366Z,67.00
2022-08-16T17:54:18.492Z,67.00
2022-08-16T17:56:56.879Z,67.10
2022-08-16T17:59:23.605Z,67.20
2022-08-16T18:01:50.648Z,67.20
2022-08-16T18:04:48.028Z,67.40
2022-08-16T18:07:04.390Z,67.60
2022-08-16T18:09:31.411Z,67.70
2022-08-16T18:11:58.144Z,67.80
2022-08-16T18:14:52.210Z,67.90
2022-08-16T18:17:12.350Z,67.90
2022-08-16T18:19:39.151Z,68.00
2022-08-16T18:22:05.940Z,68.00
2022-08-16T18:24:32.850Z,68.10
2022-08-16T18:27:24.885Z,69.00
2022-08-16T18:29:47.730Z,68.30
2022-08-16T18:32:17.355Z,68.60
2022-08-16T18:34:50.276Z,68.80
2022-08-16T18:37:16.990Z,68.90
2022-08-16T18:39:43.890Z,69.10
2022-08-16T18:42:14.202Z,69.20
2022-08-16T18:44:41.800Z,69.30
2022-08-16T18:47:08.552Z,69.50
2022-08-16T18:49:35.540Z,69.60
2022-08-16T18:52:02.427Z,69.70
2022-08-16T18:54:30.036Z,69.90
2022-08-16T18:56:58.131Z,70.00
2022-08-16T18:59:29.440Z,70.00
2022-08-16T19:02:00.381Z,70.10
2022-08-16T19:04:55.990Z,70.10
2022-08-16T19:07:30.894Z,70.30
2022-08-16T19:09:59.862Z,70.30
2022-08-16T19:12:38.540Z,70.50
2022-08-16T19:15:11.954Z,70.60
2022-08-16T19:17:38.980Z,70.70
2022-08-16T19:20:10.522Z,70.80
2022-08-16T19:23:01.648Z,71.00
2022-08-16T19:25:46.135Z,71.10
2022-08-16T19:28:49.073Z,71.30
2022-08-16T19:30:59.069Z,71.30
2022-08-16T19:33:25.825Z,71.40
2022-08-16T19:35:52.564Z,71.50
2022-08-16T19:38:19.292Z,71.60
2022-08-16T19:40:46.067Z,71.70
2022-08-16T19:43:12.793Z,71.80
2022-08-16T19:45:45.394Z,71.80
2022-08-16T19:48:12.802Z,71.90
2022-08-16T19:50:39.613Z,71.90
2022-08-16T19:53:13.122Z,71.90
2022-08-16T19:55:45.944Z,72.00
2022-08-16T19:58:14.455Z,72.10
2022-08-16T20:00:41.550Z,72.20
2022-08-16T20:03:16.010Z,72.30
2022-08-16T20:05:43.122Z,72.30
2022-08-16T20:08:10.300Z,72.40
2022-08-16T20:10:37.348Z,72.50
2022-08-16T20:13:05.894Z,72.50
2022-08-16T20:15:32.636Z,72.70
2022-08-16T20:18:00.988Z,72.70
2022-08-16T20:20:27.826Z,72.70
2022-08-16T20:22:54.944Z,72.80
2022-08-16T20:25:27.976Z,73.00
2022-08-16T20:27:55.654Z,73.20
2022-08-16T20:30:22.421Z,73.20
2022-08-16T20:32:49.499Z,73.20
2022-08-16T20:35:17.786Z,73.20
2022-08-16T20:37:44.524Z,73.20
2022-08-16T20:40:28.442Z,73.30
2022-08-16T20:43:17.600Z,73.40
2022-08-16T20:45:45.289Z,73.50
2022-08-16T20:48:12.154Z,73.50
2022-08-16T20:50:39.050Z,73.50
2022-08-16T20:53:06.117Z,73.50
2022-08-16T20:55:34.726Z,73.50
2022-08-16T20:58:01.472Z,73.60
2022-08-16T21:00:28.213Z,73.50
2022-08-16T21:02:55.257Z,73.70
2022-08-16T21:05:24.632Z,73.80
2022-08-16T21:07:54.594Z,74.70
2022-08-16T21:10:22.454Z,73.90
2022-08-16T21:12:54.074Z,73.90
2022-08-16T21:15:21.045Z,74.00
2022-08-16T21:17:47.802Z,73.80
2022-08-16T21:20:14.659Z,73.80
2022-08-16T21:22:41.408Z,73.80
2022-08-16T21:25:10.847Z,74.00
2022-08-16T21:27:44.527Z,74.00
2022-08-16T21:30:32.169Z,74.00
2022-08-16T21:33:03.180Z,74.00
2022-08-16T21:35:30.234Z,74.00
2022-08-16T21:38:00.193Z,74.00
2022-08-16T21:40:43.715Z,74.10
2022-08-16T21:43:12.755Z,74.20
2022-08-16T21:45:39.851Z,74.30
2022-08-16T21:48:07.802Z,74.20
2022-08-16T21:50:34.810Z,74.20
2022-08-16T21:53:27.828Z,74.20
2022-08-16T21:55:56.086Z,74.30
2022-08-16T21:58:22.850Z,74.60
2022-08-16T22:00:49.718Z,74.50
2022-08-16T22:03:16.520Z,74.50
2022-08-16T22:05:44.740Z,74.50
2022-08-16T22:08:12.136Z,74.60
2022-08-16T22:11:07.128Z,74.60
2022-08-16T22:13:26.144Z,74.70
2022-08-16T22:15:53.134Z,74.70
2022-08-16T22:18:19.929Z,74.70
2022-08-16T22:20:46.828Z,74.70
2022-08-16T22:23:18.819Z,74.70
2022-08-16T22:25:46.446Z,74.70
2022-08-16T22:28:13.525Z,74.80
2022-08-16T22:30:40.656Z,74.80
2022-08-16T22:33:15.587Z,74.80
2022-08-16T22:35:44.329Z,75.00
2022-08-16T22:38:55.492Z,75.00
2022-08-16T22:40:58.179Z,75.00
2022-08-16T22:43:25.007Z,75.00
2022-08-16T22:45:51.716Z,75.00
2022-08-16T22:48:18.416Z,75.00
2022-08-16T22:50:45.243Z,75.00
2022-08-16T22:53:12.152Z,75.10
2022-08-16T22:55:38.865Z,75.30
2022-08-16T22:58:05.571Z,75.50
2022-08-16T23:00:32.667Z,75.60
2022-08-16T23:03:16.375Z,75.60
2022-08-16T23:05:46.571Z,75.70
2022-08-16T23:08:32.241Z,75.90
2022-08-16T23:11:05.187Z,75.90
2022-08-16T23:13:32.053Z,76.00
2022-08-16T23:16:00.575Z,75.90
2022-08-16T23:18:28.969Z,76.10
2022-08-16T23:20:57.027Z,76.10
2022-08-16T23:23:24.506Z,77.10
2022-08-16T23:25:52.924Z,76.40
2022-08-16T23:28:22.789Z,76.40
2022-08-16T23:30:49.523Z,76.40
2022-08-16T23:33:16.578Z,76.40
2022-08-16T23:35:45.817Z,76.40
2022-08-16T23:38:37.571Z,76.40
2022-08-16T23:41:00.525Z,76.30
2022-08-16T23:43:29.396Z,76.40
2022-08-16T23:45:58.267Z,76.50
2022-08-16T23:48:26.142Z,76.70
2022-08-16T23:50:54.432Z,76.60
2022-08-16T23:53:25.665Z,76.60
2022-08-16T23:56:03.379Z,76.60
2022-08-16T23:58:31.990Z,76.60
